sensor_id;sensor_type;location;lat;lon;timestamp;P1;durP1;ratioP1;P2;durP2;ratioP2
12631;SDS011;6381;45.748;12.106;2023-07-30T00:01:50;10.85;;;9.85;;
12631;SDS011;6381;45.748;12.106;2023-07-30T00:04:23;14.60;;;9.27;;
12631;SDS011;6381;45.748;12.106;2023-07-30T00:06:59;10.85;;;8.90;;
12631;SDS011;6381;45.748;12.106;2023-07-30T00:09:34;10.25;;;9.02;;
12631;SDS011;6381;45.748;12.106;2023-07-30T00:12:11;9.95;;;8.93;;
12631;SDS011;6381;45.748;12.106;2023-07-30T00:14:48;9.25;;;7.78;;
12631;SDS011;6381;45.748;12.106;2023-07-30T00:17:25;9.57;;;8.68;;
12631;SDS011;6381;45.748;12.106;2023-07-30T00:20:02;9.85;;;7.97;;
12631;SDS011;6381;45.748;12.106;2023-07-30T00:22:38;9.73;;;8.10;;
12631;SDS011;6381;45.748;12.106;2023-07-30T00:25:13;9.18;;;7.22;;
12631;SDS011;6381;45.748;12.106;2023-07-30T00:30:59;8.20;;;7.40;;
12631;SDS011;6381;45.748;12.106;2023-07-30T00:33:33;8.85;;;7.85;;
12631;SDS011;6381;45.748;12.106;2023-07-30T00:36:04;8.20;;;7.45;;
12631;SDS011;6381;45.748;12.106;2023-07-30T00:38:47;8.70;;;7.80;;
12631;SDS011;6381;45.748;12.106;2023-07-30T00:41:18;8.82;;;7.93;;
12631;SDS011;6381;45.748;12.106;2023-07-30T00:44:01;9.52;;;8.25;;
12631;SDS011;6381;45.748;12.106;2023-07-30T00:46:39;8.88;;;8.18;;
12631;SDS011;6381;45.748;12.106;2023-07-30T00:49:13;8.85;;;7.93;;
12631;SDS011;6381;45.748;12.106;2023-07-30T00:51:50;9.43;;;8.30;;
12631;SDS011;6381;45.748;12.106;2023-07-30T00:54:20;9.48;;;8.52;;
12631;SDS011;6381;45.748;12.106;2023-07-30T00:56:56;9.15;;;8.35;;
12631;SDS011;6381;45.748;12.106;2023-07-30T00:59:42;9.73;;;8.82;;
12631;SDS011;6381;45.748;12.106;2023-07-30T01:02:17;9.38;;;8.50;;
12631;SDS011;6381;45.748;12.106;2023-07-30T01:04:49;9.73;;;8.40;;
12631;SDS011;6381;45.748;12.106;2023-07-30T01:07:31;11.07;;;9.75;;
12631;SDS011;6381;45.748;12.106;2023-07-30T01:10:03;10.25;;;8.65;;
12631;SDS011;6381;45.748;12.106;2023-07-30T01:12:46;8.75;;;7.90;;
12631;SDS011;6381;45.748;12.106;2023-07-30T01:15:22;9.70;;;8.80;;
12631;SDS011;6381;45.748;12.106;2023-07-30T01:18:00;9.75;;;8.32;;
12631;SDS011;6381;45.748;12.106;2023-07-30T01:20:32;10.13;;;9.10;;
12631;SDS011;6381;45.748;12.106;2023-07-30T01:23:12;10.10;;;8.73;;
12631;SDS011;6381;45.748;12.106;2023-07-30T01:25:48;10.15;;;9.15;;
12631;SDS011;6381;45.748;12.106;2023-07-30T01:28:25;11.10;;;8.38;;
12631;SDS011;6381;45.748;12.106;2023-07-30T01:31:01;9.85;;;8.93;;
12631;SDS011;6381;45.748;12.106;2023-07-30T01:33:41;10.43;;;8.68;;
12631;SDS011;6381;45.748;12.106;2023-07-30T01:36:14;10.45;;;9.45;;
12631;SDS011;6381;45.748;12.106;2023-07-30T01:38:50;10.38;;;9.10;;
12631;SDS011;6381;45.748;12.106;2023-07-30T01:41:27;11.30;;;10.20;;
12631;SDS011;6381;45.748;12.106;2023-07-30T01:44:05;10.68;;;9.27;;
12631;SDS011;6381;45.748;12.106;2023-07-30T01:46:35;11.25;;;10.05;;
12631;SDS011;6381;45.748;12.106;2023-07-30T01:49:20;10.90;;;9.90;;
12631;SDS011;6381;45.748;12.106;2023-07-30T01:51:51;12.13;;;10.63;;
12631;SDS011;6381;45.748;12.106;2023-07-30T01:54:31;10.55;;;8.98;;
12631;SDS011;6381;45.748;12.106;2023-07-30T01:57:01;10.18;;;9.27;;
12631;SDS011;6381;45.748;12.106;2023-07-30T01:59:37;10.40;;;9.32;;
12631;SDS011;6381;45.748;12.106;2023-07-30T02:02:13;9.73;;;8.68;;
12631;SDS011;6381;45.748;12.106;2023-07-30T02:05:01;9.35;;;8.50;;
12631;SDS011;6381;45.748;12.106;2023-07-30T02:07:32;9.70;;;8.65;;
12631;SDS011;6381;45.748;12.106;2023-07-30T02:10:05;10.05;;;8.98;;
12631;SDS011;6381;45.748;12.106;2023-07-30T02:16:56;11.15;;;9.70;;
12631;SDS011;6381;45.748;12.106;2023-07-30T02:22:23;11.75;;;10.02;;
12631;SDS011;6381;45.748;12.106;2023-07-30T02:24:59;10.98;;;9.75;;
12631;SDS011;6381;45.748;12.106;2023-07-30T02:27:43;11.98;;;10.77;;
12631;SDS011;6381;45.748;12.106;2023-07-30T02:30:22;11.60;;;10.50;;
12631;SDS011;6381;45.748;12.106;2023-07-30T02:32:59;9.45;;;8.38;;
12631;SDS011;6381;45.748;12.106;2023-07-30T02:35:30;8.27;;;7.47;;
12631;SDS011;6381;45.748;12.106;2023-07-30T02:38:14;6.63;;;6.00;;
12631;SDS011;6381;45.748;12.106;2023-07-30T02:40:45;5.40;;;4.60;;
12631;SDS011;6381;45.748;12.106;2023-07-30T02:43:17;3.63;;;3.33;;
12631;SDS011;6381;45.748;12.106;2023-07-30T02:45:59;2.30;;;2.10;;
12631;SDS011;6381;45.748;12.106;2023-07-30T02:48:29;2.45;;;2.03;;
12631;SDS011;6381;45.748;12.106;2023-07-30T02:51:07;4.10;;;2.00;;
12631;SDS011;6381;45.748;12.106;2023-07-30T02:53:52;2.13;;;1.85;;
12631;SDS011;6381;45.748;12.106;2023-07-30T02:56:26;2.08;;;1.88;;
12631;SDS011;6381;45.748;12.106;2023-07-30T02:58:58;1.70;;;1.55;;
12631;SDS011;6381;45.748;12.106;2023-07-30T03:01:36;1.60;;;1.50;;
12631;SDS011;6381;45.748;12.106;2023-07-30T03:04:18;2.42;;;1.58;;
12631;SDS011;6381;45.748;12.106;2023-07-30T03:06:48;1.80;;;1.40;;
12631;SDS011;6381;45.748;12.106;2023-07-30T03:09:31;2.08;;;1.70;;
12631;SDS011;6381;45.748;12.106;2023-07-30T03:12:03;1.55;;;1.45;;
12631;SDS011;6381;45.748;12.106;2023-07-30T03:14:46;2.22;;;1.25;;
12631;SDS011;6381;45.748;12.106;2023-07-30T03:17:24;1.23;;;1.13;;
12631;SDS011;6381;45.748;12.106;2023-07-30T03:20:01;1.45;;;1.35;;
12631;SDS011;6381;45.748;12.106;2023-07-30T03:22:36;2.63;;;1.25;;
12631;SDS011;6381;45.748;12.106;2023-07-30T03:25:15;1.20;;;1.10;;
12631;SDS011;6381;45.748;12.106;2023-07-30T03:27:51;4.22;;;1.40;;
12631;SDS011;6381;45.748;12.106;2023-07-30T03:30:30;2.15;;;1.40;;
12631;SDS011;6381;45.748;12.106;2023-07-30T03:33:04;1.85;;;1.50;;
12631;SDS011;6381;45.748;12.106;2023-07-30T03:35:41;1.92;;;1.42;;
12631;SDS011;6381;45.748;12.106;2023-07-30T03:38:14;1.73;;;1.40;;
12631;SDS011;6381;45.748;12.106;2023-07-30T03:40:45;1.58;;;1.48;;
12631;SDS011;6381;45.748;12.106;2023-07-30T03:43:23;2.95;;;1.70;;
12631;SDS011;6381;45.748;12.106;2023-07-30T03:46:09;2.45;;;1.83;;
12631;SDS011;6381;45.748;12.106;2023-07-30T03:51:35;1.90;;;1.70;;
12631;SDS011;6381;45.748;12.106;2023-07-30T03:57:13;2.00;;;1.75;;
12631;SDS011;6381;45.748;12.106;2023-07-30T03:59:49;2.25;;;1.80;;
12631;SDS011;6381;45.748;12.106;2023-07-30T04:02:26;3.35;;;1.60;;
12631;SDS011;6381;45.748;12.106;2023-07-30T04:05:09;2.22;;;1.60;;
12631;SDS011;6381;45.748;12.106;2023-07-30T04:07:40;1.60;;;1.50;;
12631;SDS011;6381;45.748;12.106;2023-07-30T04:10:22;2.05;;;1.55;;
12631;SDS011;6381;45.748;12.106;2023-07-30T04:12:54;2.30;;;1.50;;
12631;SDS011;6381;45.748;12.106;2023-07-30T04:15:36;2.05;;;1.75;;
12631;SDS011;6381;45.748;12.106;2023-07-30T04:18:15;2.80;;;1.92;;
12631;SDS011;6381;45.748;12.106;2023-07-30T04:20:47;2.60;;;2.00;;
12631;SDS011;6381;45.748;12.106;2023-07-30T04:23:18;2.60;;;1.88;;
12631;SDS011;6381;45.748;12.106;2023-07-30T04:26:02;2.65;;;2.10;;
12631;SDS011;6381;45.748;12.106;2023-07-30T04:28:32;2.33;;;2.13;;
12631;SDS011;6381;45.748;12.106;2023-07-30T04:31:10;2.20;;;2.00;;
12631;SDS011;6381;45.748;12.106;2023-07-30T04:33:53;1.67;;;1.58;;
12631;SDS011;6381;45.748;12.106;2023-07-30T04:36:24;2.00;;;1.80;;
12631;SDS011;6381;45.748;12.106;2023-07-30T04:38:57;2.00;;;1.80;;
12631;SDS011;6381;45.748;12.106;2023-07-30T04:41:35;4.32;;;2.10;;
12631;SDS011;6381;45.748;12.106;2023-07-30T04:44:20;1.80;;;1.67;;
12631;SDS011;6381;45.748;12.106;2023-07-30T04:46:50;3.95;;;1.90;;
12631;SDS011;6381;45.748;12.106;2023-07-30T04:49:36;7.43;;;6.53;;
12631;SDS011;6381;45.748;12.106;2023-07-30T04:55:14;29.00;;;18.83;;
12631;SDS011;6381;45.748;12.106;2023-07-30T04:57:49;22.17;;;14.18;;
12631;SDS011;6381;45.748;12.106;2023-07-30T05:00:25;10.13;;;7.47;;
12631;SDS011;6381;45.748;12.106;2023-07-30T05:03:01;8.30;;;4.75;;
12631;SDS011;6381;45.748;12.106;2023-07-30T05:05:36;7.50;;;4.47;;
12631;SDS011;6381;45.748;12.106;2023-07-30T05:08:16;4.53;;;3.60;;
12631;SDS011;6381;45.748;12.106;2023-07-30T05:10:50;3.97;;;3.00;;
12631;SDS011;6381;45.748;12.106;2023-07-30T05:13:27;2.40;;;2.00;;
12631;SDS011;6381;45.748;12.106;2023-07-30T05:15:57;3.70;;;2.47;;
12631;SDS011;6381;45.748;12.106;2023-07-30T05:18:29;3.58;;;2.15;;
12631;SDS011;6381;45.748;12.106;2023-07-30T05:21:01;4.07;;;2.63;;
12631;SDS011;6381;45.748;12.106;2023-07-30T05:23:31;2.60;;;2.40;;
12631;SDS011;6381;45.748;12.106;2023-07-30T05:26:02;3.35;;;2.20;;
12631;SDS011;6381;45.748;12.106;2023-07-30T05:28:33;2.17;;;1.80;;
12631;SDS011;6381;45.748;12.106;2023-07-30T05:31:03;2.47;;;1.80;;
12631;SDS011;6381;45.748;12.106;2023-07-30T05:33:34;1.98;;;1.77;;
12631;SDS011;6381;45.748;12.106;2023-07-30T05:36:06;1.83;;;1.70;;
12631;SDS011;6381;45.748;12.106;2023-07-30T05:38:36;2.30;;;1.90;;
12631;SDS011;6381;45.748;12.106;2023-07-30T05:41:07;3.28;;;1.90;;
12631;SDS011;6381;45.748;12.106;2023-07-30T05:43:37;2.05;;;1.70;;
12631;SDS011;6381;45.748;12.106;2023-07-30T05:46:07;2.25;;;2.05;;
12631;SDS011;6381;45.748;12.106;2023-07-30T05:48:37;1.77;;;1.65;;
12631;SDS011;6381;45.748;12.106;2023-07-30T05:51:09;2.03;;;1.80;;
12631;SDS011;6381;45.748;12.106;2023-07-30T05:53:40;1.70;;;1.60;;
12631;SDS011;6381;45.748;12.106;2023-07-30T05:56:12;1.88;;;1.77;;
12631;SDS011;6381;45.748;12.106;2023-07-30T05:58:46;2.00;;;1.80;;
12631;SDS011;6381;45.748;12.106;2023-07-30T06:01:16;1.70;;;1.60;;
12631;SDS011;6381;45.748;12.106;2023-07-30T06:03:47;2.03;;;1.80;;
12631;SDS011;6381;45.748;12.106;2023-07-30T06:06:19;2.10;;;1.90;;
12631;SDS011;6381;45.748;12.106;2023-07-30T06:08:55;2.10;;;1.90;;
12631;SDS011;6381;45.748;12.106;2023-07-30T06:11:25;1.90;;;1.70;;
12631;SDS011;6381;45.748;12.106;2023-07-30T06:13:56;2.53;;;1.95;;
12631;SDS011;6381;45.748;12.106;2023-07-30T06:16:26;2.50;;;1.92;;
12631;SDS011;6381;45.748;12.106;2023-07-30T06:18:57;2.20;;;2.00;;
12631;SDS011;6381;45.748;12.106;2023-07-30T06:21:29;1.65;;;1.55;;
12631;SDS011;6381;45.748;12.106;2023-07-30T06:23:59;2.10;;;1.90;;
12631;SDS011;6381;45.748;12.106;2023-07-30T06:26:30;2.10;;;1.90;;
12631;SDS011;6381;45.748;12.106;2023-07-30T06:29:00;2.10;;;1.80;;
12631;SDS011;6381;45.748;12.106;2023-07-30T06:31:30;2.42;;;2.17;;
12631;SDS011;6381;45.748;12.106;2023-07-30T06:34:01;1.90;;;1.80;;
12631;SDS011;6381;45.748;12.106;2023-07-30T06:36:33;3.25;;;2.17;;
12631;SDS011;6381;45.748;12.106;2023-07-30T06:39:03;2.38;;;2.17;;
12631;SDS011;6381;45.748;12.106;2023-07-30T06:41:34;2.20;;;2.00;;
12631;SDS011;6381;45.748;12.106;2023-07-30T06:44:05;1.88;;;1.75;;
12631;SDS011;6381;45.748;12.106;2023-07-30T06:46:36;2.42;;;2.08;;
12631;SDS011;6381;45.748;12.106;2023-07-30T06:49:06;2.35;;;2.15;;
12631;SDS011;6381;45.748;12.106;2023-07-30T06:51:37;2.10;;;1.90;;
12631;SDS011;6381;45.748;12.106;2023-07-30T06:54:08;2.25;;;1.90;;
12631;SDS011;6381;45.748;12.106;2023-07-30T06:56:39;2.20;;;1.92;;
12631;SDS011;6381;45.748;12.106;2023-07-30T06:59:10;2.80;;;2.15;;
12631;SDS011;6381;45.748;12.106;2023-07-30T07:01:40;3.28;;;2.10;;
12631;SDS011;6381;45.748;12.106;2023-07-30T07:04:11;2.30;;;2.10;;
12631;SDS011;6381;45.748;12.106;2023-07-30T07:06:43;2.03;;;1.80;;
12631;SDS011;6381;45.748;12.106;2023-07-30T07:09:13;2.40;;;1.90;;
12631;SDS011;6381;45.748;12.106;2023-07-30T07:11:43;2.10;;;1.90;;
12631;SDS011;6381;45.748;12.106;2023-07-30T07:14:13;2.53;;;2.08;;
12631;SDS011;6381;45.748;12.106;2023-07-30T07:16:43;2.13;;;1.92;;
12631;SDS011;6381;45.748;12.106;2023-07-30T07:19:13;2.10;;;1.90;;
12631;SDS011;6381;45.748;12.106;2023-07-30T07:21:45;2.50;;;2.20;;
12631;SDS011;6381;45.748;12.106;2023-07-30T07:24:15;2.55;;;2.35;;
12631;SDS011;6381;45.748;12.106;2023-07-30T07:26:46;2.38;;;2.17;;
12631;SDS011;6381;45.748;12.106;2023-07-30T07:29:16;2.63;;;2.20;;
12631;SDS011;6381;45.748;12.106;2023-07-30T07:31:46;4.80;;;2.30;;
12631;SDS011;6381;45.748;12.106;2023-07-30T07:34:16;2.22;;;2.03;;
12631;SDS011;6381;45.748;12.106;2023-07-30T07:36:48;2.17;;;1.98;;
12631;SDS011;6381;45.748;12.106;2023-07-30T07:39:19;2.22;;;2.03;;
12631;SDS011;6381;45.748;12.106;2023-07-30T07:41:49;2.33;;;2.10;;
12631;SDS011;6381;45.748;12.106;2023-07-30T07:44:19;2.65;;;1.98;;
12631;SDS011;6381;45.748;12.106;2023-07-30T07:46:50;2.00;;;1.90;;
12631;SDS011;6381;45.748;12.106;2023-07-30T07:49:20;2.17;;;1.95;;
12631;SDS011;6381;45.748;12.106;2023-07-30T07:51:52;2.55;;;2.35;;
12631;SDS011;6381;45.748;12.106;2023-07-30T07:54:22;2.40;;;2.17;;
12631;SDS011;6381;45.748;12.106;2023-07-30T07:56:53;3.53;;;2.00;;
12631;SDS011;6381;45.748;12.106;2023-07-30T07:59:23;2.78;;;2.10;;
12631;SDS011;6381;45.748;12.106;2023-07-30T08:01:55;2.33;;;2.13;;
12631;SDS011;6381;45.748;12.106;2023-07-30T08:04:25;2.47;;;2.28;;
12631;SDS011;6381;45.748;12.106;2023-07-30T08:06:57;3.83;;;2.40;;
12631;SDS011;6381;45.748;12.106;2023-07-30T08:09:31;2.85;;;2.30;;
12631;SDS011;6381;45.748;12.106;2023-07-30T08:12:01;2.58;;;1.98;;
12631;SDS011;6381;45.748;12.106;2023-07-30T08:14:32;2.60;;;2.40;;
12631;SDS011;6381;45.748;12.106;2023-07-30T08:17:02;2.92;;;2.72;;
12631;SDS011;6381;45.748;12.106;2023-07-30T08:19:33;3.88;;;2.40;;
12631;SDS011;6381;45.748;12.106;2023-07-30T08:22:05;2.17;;;1.98;;
12631;SDS011;6381;45.748;12.106;2023-07-30T08:24:35;2.10;;;1.85;;
12631;SDS011;6381;45.748;12.106;2023-07-30T08:27:06;2.22;;;2.03;;
12631;SDS011;6381;45.748;12.106;2023-07-30T08:29:36;2.75;;;2.38;;
12631;SDS011;6381;45.748;12.106;2023-07-30T08:32:07;2.33;;;2.13;;
12631;SDS011;6381;45.748;12.106;2023-07-30T08:34:37;3.13;;;2.00;;
12631;SDS011;6381;45.748;12.106;2023-07-30T08:37:10;4.43;;;2.42;;
12631;SDS011;6381;45.748;12.106;2023-07-30T08:39:40;2.83;;;2.05;;
12631;SDS011;6381;45.748;12.106;2023-07-30T08:42:13;2.15;;;2.00;;
12631;SDS011;6381;45.748;12.106;2023-07-30T08:44:44;2.25;;;2.05;;
12631;SDS011;6381;45.748;12.106;2023-07-30T08:47:15;2.35;;;2.15;;
12631;SDS011;6381;45.748;12.106;2023-07-30T08:49:45;2.33;;;2.00;;
12631;SDS011;6381;45.748;12.106;2023-07-30T08:52:19;1.85;;;1.75;;
12631;SDS011;6381;45.748;12.106;2023-07-30T08:54:52;2.58;;;2.10;;
12631;SDS011;6381;45.748;12.106;2023-07-30T08:57:23;2.10;;;1.90;;
12631;SDS011;6381;45.748;12.106;2023-07-30T08:59:58;2.13;;;1.92;;
12631;SDS011;6381;45.748;12.106;2023-07-30T09:02:34;2.03;;;1.83;;
12631;SDS011;6381;45.748;12.106;2023-07-30T09:05:11;2.00;;;1.80;;
12631;SDS011;6381;45.748;12.106;2023-07-30T09:07:45;2.10;;;1.90;;
12631;SDS011;6381;45.748;12.106;2023-07-30T09:10:18;2.10;;;1.90;;
12631;SDS011;6381;45.748;12.106;2023-07-30T09:12:52;2.42;;;1.70;;
12631;SDS011;6381;45.748;12.106;2023-07-30T09:15:29;1.92;;;1.73;;
12631;SDS011;6381;45.748;12.106;2023-07-30T09:18:01;1.65;;;1.55;;
12631;SDS011;6381;45.748;12.106;2023-07-30T09:20:38;1.90;;;1.70;;
12631;SDS011;6381;45.748;12.106;2023-07-30T09:23:10;1.70;;;1.60;;
12631;SDS011;6381;45.748;12.106;2023-07-30T09:25:41;1.70;;;1.60;;
12631;SDS011;6381;45.748;12.106;2023-07-30T09:28:12;2.72;;;1.77;;
12631;SDS011;6381;45.748;12.106;2023-07-30T09:30:42;2.00;;;1.80;;
12631;SDS011;6381;45.748;12.106;2023-07-30T09:33:18;1.70;;;1.38;;
12631;SDS011;6381;45.748;12.106;2023-07-30T09:35:49;1.92;;;1.73;;
12631;SDS011;6381;45.748;12.106;2023-07-30T09:38:22;3.65;;;1.77;;
12631;SDS011;6381;45.748;12.106;2023-07-30T09:40:56;1.90;;;1.80;;
12631;SDS011;6381;45.748;12.106;2023-07-30T09:43:31;3.03;;;2.05;;
12631;SDS011;6381;45.748;12.106;2023-07-30T09:46:02;2.17;;;1.70;;
12631;SDS011;6381;45.748;12.106;2023-07-30T09:48:34;2.15;;;1.80;;
12631;SDS011;6381;45.748;12.106;2023-07-30T09:51:04;2.10;;;1.90;;
12631;SDS011;6381;45.748;12.106;2023-07-30T09:53:36;2.10;;;1.90;;
12631;SDS011;6381;45.748;12.106;2023-07-30T09:56:07;2.22;;;1.80;;
12631;SDS011;6381;45.748;12.106;2023-07-30T09:58:37;1.98;;;1.77;;
12631;SDS011;6381;45.748;12.106;2023-07-30T10:01:10;2.40;;;2.20;;
12631;SDS011;6381;45.748;12.106;2023-07-30T10:03:40;2.20;;;1.88;;
12631;SDS011;6381;45.748;12.106;2023-07-30T10:06:11;2.10;;;1.90;;
12631;SDS011;6381;45.748;12.106;2023-07-30T10:08:43;2.38;;;2.00;;
12631;SDS011;6381;45.748;12.106;2023-07-30T10:11:15;2.40;;;2.08;;
12631;SDS011;6381;45.748;12.106;2023-07-30T10:13:46;2.80;;;2.45;;
12631;SDS011;6381;45.748;12.106;2023-07-30T10:16:16;2.40;;;2.20;;
12631;SDS011;6381;45.748;12.106;2023-07-30T10:18:46;2.30;;;2.10;;
12631;SDS011;6381;45.748;12.106;2023-07-30T10:21:25;2.50;;;2.30;;
12631;SDS011;6381;45.748;12.106;2023-07-30T10:23:59;2.17;;;1.98;;
12631;SDS011;6381;45.748;12.106;2023-07-30T10:26:31;2.20;;;2.00;;
12631;SDS011;6381;45.748;12.106;2023-07-30T10:29:12;1.90;;;1.80;;
12631;SDS011;6381;45.748;12.106;2023-07-30T10:31:47;2.42;;;2.22;;
12631;SDS011;6381;45.748;12.106;2023-07-30T10:34:21;2.70;;;2.50;;
12631;SDS011;6381;45.748;12.106;2023-07-30T10:36:55;2.05;;;1.92;;
12631;SDS011;6381;45.748;12.106;2023-07-30T10:39:27;2.40;;;2.20;;
12631;SDS011;6381;45.748;12.106;2023-07-30T10:41:58;2.30;;;2.10;;
12631;SDS011;6381;45.748;12.106;2023-07-30T10:44:31;2.28;;;2.08;;
12631;SDS011;6381;45.748;12.106;2023-07-30T10:47:02;3.25;;;2.20;;
12631;SDS011;6381;45.748;12.106;2023-07-30T10:49:35;2.20;;;2.00;;
12631;SDS011;6381;45.748;12.106;2023-07-30T10:52:08;2.10;;;1.90;;
12631;SDS011;6381;45.748;12.106;2023-07-30T10:54:40;2.35;;;2.15;;
12631;SDS011;6381;45.748;12.106;2023-07-30T10:57:10;3.20;;;2.13;;
12631;SDS011;6381;45.748;12.106;2023-07-30T10:59:41;2.40;;;2.20;;
12631;SDS011;6381;45.748;12.106;2023-07-30T11:02:11;2.10;;;1.90;;
12631;SDS011;6381;45.748;12.106;2023-07-30T11:04:41;2.20;;;2.00;;
12631;SDS011;6381;45.748;12.106;2023-07-30T11:07:16;3.35;;;2.45;;
12631;SDS011;6381;45.748;12.106;2023-07-30T11:09:52;2.40;;;2.20;;
12631;SDS011;6381;45.748;12.106;2023-07-30T11:12:29;2.42;;;2.20;;
12631;SDS011;6381;45.748;12.106;2023-07-30T11:15:00;2.30;;;2.10;;
12631;SDS011;6381;45.748;12.106;2023-07-30T11:17:31;2.45;;;2.25;;
12631;SDS011;6381;45.748;12.106;2023-07-30T11:20:02;2.50;;;2.30;;
12631;SDS011;6381;45.748;12.106;2023-07-30T11:22:35;2.53;;;2.33;;
12631;SDS011;6381;45.748;12.106;2023-07-30T11:25:17;2.40;;;2.20;;
12631;SDS011;6381;45.748;12.106;2023-07-30T11:27:48;2.35;;;2.15;;
12631;SDS011;6381;45.748;12.106;2023-07-30T11:30:19;2.83;;;2.50;;
12631;SDS011;6381;45.748;12.106;2023-07-30T11:32:49;2.50;;;2.30;;
12631;SDS011;6381;45.748;12.106;2023-07-30T11:35:21;3.25;;;2.40;;
12631;SDS011;6381;45.748;12.106;2023-07-30T11:37:51;2.40;;;2.20;;
12631;SDS011;6381;45.748;12.106;2023-07-30T11:40:24;2.72;;;2.08;;
12631;SDS011;6381;45.748;12.106;2023-07-30T11:42:54;2.17;;;2.00;;
12631;SDS011;6381;45.748;12.106;2023-07-30T11:45:26;2.20;;;2.00;;
12631;SDS011;6381;45.748;12.106;2023-07-30T11:48:05;2.40;;;2.20;;
12631;SDS011;6381;45.748;12.106;2023-07-30T11:50:44;2.47;;;2.28;;
12631;SDS011;6381;45.748;12.106;2023-07-30T11:53:15;2.92;;;2.08;;
12631;SDS011;6381;45.748;12.106;2023-07-30T11:55:48;2.42;;;2.22;;
12631;SDS011;6381;45.748;12.106;2023-07-30T11:58:18;2.20;;;2.00;;
12631;SDS011;6381;45.748;12.106;2023-07-30T12:00:49;2.38;;;2.17;;
12631;SDS011;6381;45.748;12.106;2023-07-30T12:03:20;2.67;;;2.45;;
12631;SDS011;6381;45.748;12.106;2023-07-30T12:05:54;2.63;;;1.80;;
12631;SDS011;6381;45.748;12.106;2023-07-30T12:08:25;2.60;;;2.28;;
12631;SDS011;6381;45.748;12.106;2023-07-30T12:11:01;2.20;;;2.00;;
12631;SDS011;6381;45.748;12.106;2023-07-30T12:13:33;2.60;;;2.40;;
12631;SDS011;6381;45.748;12.106;2023-07-30T12:16:05;2.60;;;2.30;;
12631;SDS011;6381;45.748;12.106;2023-07-30T12:18:35;2.72;;;2.33;;
12631;SDS011;6381;45.748;12.106;2023-07-30T12:21:06;2.30;;;2.08;;
12631;SDS011;6381;45.748;12.106;2023-07-30T12:23:38;2.10;;;1.90;;
12631;SDS011;6381;45.748;12.106;2023-07-30T12:26:10;2.50;;;2.10;;
12631;SDS011;6381;45.748;12.106;2023-07-30T12:28:40;2.88;;;2.00;;
12631;SDS011;6381;45.748;12.106;2023-07-30T12:31:10;2.42;;;2.22;;
12631;SDS011;6381;45.748;12.106;2023-07-30T12:33:41;2.30;;;2.10;;
12631;SDS011;6381;45.748;12.106;2023-07-30T12:36:12;2.65;;;2.30;;
12631;SDS011;6381;45.748;12.106;2023-07-30T12:38:43;2.40;;;2.20;;
12631;SDS011;6381;45.748;12.106;2023-07-30T12:41:15;2.08;;;1.88;;
12631;SDS011;6381;45.748;12.106;2023-07-30T12:43:46;2.20;;;2.00;;
12631;SDS011;6381;45.748;12.106;2023-07-30T12:46:17;1.95;;;1.75;;
12631;SDS011;6381;45.748;12.106;2023-07-30T12:48:47;2.20;;;2.00;;
12631;SDS011;6381;45.748;12.106;2023-07-30T12:51:18;2.55;;;2.10;;
12631;SDS011;6381;45.748;12.106;2023-07-30T12:53:50;2.45;;;2.15;;
12631;SDS011;6381;45.748;12.106;2023-07-30T12:56:22;2.80;;;2.13;;
12631;SDS011;6381;45.748;12.106;2023-07-30T12:58:52;2.65;;;2.30;;
12631;SDS011;6381;45.748;12.106;2023-07-30T13:01:23;2.28;;;2.00;;
12631;SDS011;6381;45.748;12.106;2023-07-30T13:03:53;2.65;;;2.25;;
12631;SDS011;6381;45.748;12.106;2023-07-30T13:06:23;3.25;;;2.15;;
12631;SDS011;6381;45.748;12.106;2023-07-30T13:08:53;2.33;;;2.13;;
12631;SDS011;6381;45.748;12.106;2023-07-30T13:11:26;2.38;;;2.10;;
12631;SDS011;6381;45.748;12.106;2023-07-30T13:13:57;2.97;;;2.78;;
12631;SDS011;6381;45.748;12.106;2023-07-30T13:16:30;2.35;;;2.15;;
12631;SDS011;6381;45.748;12.106;2023-07-30T13:19:01;3.63;;;2.40;;
12631;SDS011;6381;45.748;12.106;2023-07-30T13:21:31;2.40;;;2.13;;
12631;SDS011;6381;45.748;12.106;2023-07-30T13:24:01;2.13;;;1.92;;
12631;SDS011;6381;45.748;12.106;2023-07-30T13:26:34;2.40;;;2.15;;
12631;SDS011;6381;45.748;12.106;2023-07-30T13:29:06;2.30;;;2.03;;
12631;SDS011;6381;45.748;12.106;2023-07-30T13:31:36;2.60;;;2.40;;
12631;SDS011;6381;45.748;12.106;2023-07-30T13:34:08;2.80;;;2.20;;
12631;SDS011;6381;45.748;12.106;2023-07-30T13:36:38;2.47;;;2.28;;
12631;SDS011;6381;45.748;12.106;2023-07-30T13:39:08;3.30;;;3.00;;
12631;SDS011;6381;45.748;12.106;2023-07-30T13:41:40;3.10;;;2.80;;
12631;SDS011;6381;45.748;12.106;2023-07-30T13:44:13;3.83;;;2.30;;
12631;SDS011;6381;45.748;12.106;2023-07-30T13:46:43;2.42;;;2.20;;
12631;SDS011;6381;45.748;12.106;2023-07-30T13:49:13;2.60;;;2.40;;
12631;SDS011;6381;45.748;12.106;2023-07-30T13:51:44;2.58;;;2.38;;
12631;SDS011;6381;45.748;12.106;2023-07-30T13:54:14;2.75;;;2.25;;
12631;SDS011;6381;45.748;12.106;2023-07-30T13:56:46;2.55;;;2.35;;
12631;SDS011;6381;45.748;12.106;2023-07-30T13:59:16;2.50;;;2.30;;
12631;SDS011;6381;45.748;12.106;2023-07-30T14:01:47;2.42;;;2.22;;
12631;SDS011;6381;45.748;12.106;2023-07-30T14:04:18;2.55;;;2.35;;
12631;SDS011;6381;45.748;12.106;2023-07-30T14:06:48;2.58;;;2.38;;
12631;SDS011;6381;45.748;12.106;2023-07-30T14:09:18;2.78;;;2.45;;
12631;SDS011;6381;45.748;12.106;2023-07-30T14:11:50;2.90;;;2.33;;
12631;SDS011;6381;45.748;12.106;2023-07-30T14:14:20;2.50;;;2.28;;
12631;SDS011;6381;45.748;12.106;2023-07-30T14:16:51;2.42;;;2.22;;
12631;SDS011;6381;45.748;12.106;2023-07-30T14:19:23;3.20;;;2.63;;
12631;SDS011;6381;45.748;12.106;2023-07-30T14:21:54;3.88;;;3.30;;
12631;SDS011;6381;45.748;12.106;2023-07-30T14:24:25;2.80;;;2.60;;
12631;SDS011;6381;45.748;12.106;2023-07-30T14:26:57;2.58;;;2.35;;
12631;SDS011;6381;45.748;12.106;2023-07-30T14:29:30;2.30;;;2.10;;
12631;SDS011;6381;45.748;12.106;2023-07-30T14:32:01;2.47;;;2.22;;
12631;SDS011;6381;45.748;12.106;2023-07-30T14:34:33;2.55;;;2.03;;
12631;SDS011;6381;45.748;12.106;2023-07-30T14:37:03;2.47;;;2.28;;
12631;SDS011;6381;45.748;12.106;2023-07-30T14:39:36;2.30;;;2.10;;
12631;SDS011;6381;45.748;12.106;2023-07-30T14:42:12;3.03;;;2.67;;
12631;SDS011;6381;45.748;12.106;2023-07-30T14:44:50;2.40;;;2.20;;
12631;SDS011;6381;45.748;12.106;2023-07-30T14:47:21;5.85;;;5.32;;
12631;SDS011;6381;45.748;12.106;2023-07-30T14:50:06;3.53;;;3.22;;
12631;SDS011;6381;45.748;12.106;2023-07-30T14:52:42;3.15;;;2.50;;
12631;SDS011;6381;45.748;12.106;2023-07-30T14:55:19;11.82;;;10.65;;
12631;SDS011;6381;45.748;12.106;2023-07-30T14:57:51;5.28;;;4.78;;
12631;SDS011;6381;45.748;12.106;2023-07-30T15:00:25;3.03;;;2.50;;
12631;SDS011;6381;45.748;12.106;2023-07-30T15:03:03;2.75;;;2.38;;
12631;SDS011;6381;45.748;12.106;2023-07-30T15:05:39;2.67;;;2.38;;
12631;SDS011;6381;45.748;12.106;2023-07-30T15:08:10;4.18;;;2.53;;
12631;SDS011;6381;45.748;12.106;2023-07-30T15:10:45;3.20;;;2.50;;
12631;SDS011;6381;45.748;12.106;2023-07-30T15:13:22;2.53;;;2.33;;
12631;SDS011;6381;45.748;12.106;2023-07-30T15:15:53;2.97;;;2.75;;
12631;SDS011;6381;45.748;12.106;2023-07-30T15:18:25;4.38;;;3.97;;
12631;SDS011;6381;45.748;12.106;2023-07-30T15:20:58;4.90;;;4.40;;
12631;SDS011;6381;45.748;12.106;2023-07-30T15:23:30;3.30;;;2.72;;
12631;SDS011;6381;45.748;12.106;2023-07-30T15:26:01;3.38;;;2.35;;
12631;SDS011;6381;45.748;12.106;2023-07-30T15:28:39;2.50;;;2.30;;
12631;SDS011;6381;45.748;12.106;2023-07-30T15:31:10;10.45;;;9.55;;
12631;SDS011;6381;45.748;12.106;2023-07-30T15:33:51;5.22;;;4.68;;
12631;SDS011;6381;45.748;12.106;2023-07-30T15:36:28;7.40;;;6.70;;
12631;SDS011;6381;45.748;12.106;2023-07-30T15:39:00;2.78;;;2.58;;
12631;SDS011;6381;45.748;12.106;2023-07-30T15:41:37;2.42;;;2.22;;